sensor_id;sensor_type;location;lat;lon;timestamp;temperature;humidity
6696;DHT22;3385;48.928;10.330;2022-12-18T00:01:05;-8.80;99.90
6696;DHT22;3385;48.928;10.330;2022-12-18T00:03:38;-10.40;99.90
6696;DHT22;3385;48.928;10.330;2022-12-18T00:06:04;-8.80;99.90
6696;DHT22;3385;48.928;10.330;2022-12-18T00:08:30;-10.10;99.90
6696;DHT22;3385;48.928;10.330;2022-12-18T00:10:55;-8.70;99.90
6696;DHT22;3385;48.928;10.330;2022-12-18T00:13:28;-9.00;99.90
6696;DHT22;3385;48.928;10.330;2022-12-18T00:15:53;-8.60;99.90
6696;DHT22;3385;48.928;10.330;2022-12-18T00:18:19;-9.30;99.90
6696;DHT22;3385;48.928;10.330;2022-12-18T00:20:45;-7.90;99.90
6696;DHT22;3385;48.928;10.330;2022-12-18T00:23:11;-7.70;99.90
6696;DHT22;3385;48.928;10.330;2022-12-18T00:25:36;-8.70;99.90
6696;DHT22;3385;48.928;10.330;2022-12-18T00:28:03;-8.70;99.90
6696;DHT22;3385;48.928;10.330;2022-12-18T00:30:29;-9.20;99.90
6696;DHT22;3385;48.928;10.330;2022-12-18T00:32:55;-8.50;99.90
6696;DHT22;3385;48.928;10.330;2022-12-18T00:35:21;-8.70;99.90
6696;DHT22;3385;48.928;10.330;2022-12-18T00:37:47;-8.20;99.90
6696;DHT22;3385;48.928;10.330;2022-12-18T00:40:13;-8.90;99.90
6696;DHT22;3385;48.928;10.330;2022-12-18T00:42:39;-8.90;99.90
6696;DHT22;3385;48.928;10.330;2022-12-18T00:45:29;-8.80;99.90
6696;DHT22;3385;48.928;10.330;2022-12-18T00:47:55;-9.00;99.90
6696;DHT22;3385;48.928;10.330;2022-12-18T00:50:23;-8.30;99.90
6696;DHT22;3385;48.928;10.330;2022-12-18T00:52:49;-8.50;99.90
6696;DHT22;3385;48.928;10.330;2022-12-18T00:55:15;-8.10;99.90
6696;DHT22;3385;48.928;10.330;2022-12-18T00:57:41;-8.90;99.90
6696;DHT22;3385;48.928;10.330;2022-12-18T01:00:11;-8.90;99.90
6696;DHT22;3385;48.928;10.330;2022-12-18T01:02:37;-8.90;99.90
6696;DHT22;3385;48.928;10.330;2022-12-18T01:05:03;-8.20;99.90
6696;DHT22;3385;48.928;10.330;2022-12-18T01:07:29;-9.00;99.90
6696;DHT22;3385;48.928;10.330;2022-12-18T01:09:55;-7.90;99.90
6696;DHT22;3385;48.928;10.330;2022-12-18T01:12:20;-8.80;99.90
6696;DHT22;3385;48.928;10.330;2022-12-18T01:14:46;-8.30;99.90
6696;DHT22;3385;48.928;10.330;2022-12-18T01:17:12;-8.90;99.90
6696;DHT22;3385;48.928;10.330;2022-12-18T01:19:38;-8.40;99.90
6696;DHT22;3385;48.928;10.330;2022-12-18T01:22:03;-7.90;99.90
6696;DHT22;3385;48.928;10.330;2022-12-18T01:24:29;-8.50;99.90
6696;DHT22;3385;48.928;10.330;2022-12-18T01:26:55;-9.00;99.90
6696;DHT22;3385;48.928;10.330;2022-12-18T01:29:22;-9.00;99.90
6696;DHT22;3385;48.928;10.330;2022-12-18T01:31:49;-8.90;99.90
6696;DHT22;3385;48.928;10.330;2022-12-18T01:34:14;-8.60;99.90
6696;DHT22;3385;48.928;10.330;2022-12-18T01:36:40;-7.90;99.90
6696;DHT22;3385;48.928;10.330;2022-12-18T01:39:10;-8.80;99.90
6696;DHT22;3385;48.928;10.330;2022-12-18T01:41:37;-8.70;99.90
6696;DHT22;3385;48.928;10.330;2022-12-18T01:47:26;-8.80;99.90
6696;DHT22;3385;48.928;10.330;2022-12-18T01:49:53;-8.80;99.90
6696;DHT22;3385;48.928;10.330;2022-12-18T01:52:20;-8.50;99.90
6696;DHT22;3385;48.928;10.330;2022-12-18T01:54:47;-8.40;99.90
6696;DHT22;3385;48.928;10.330;2022-12-18T01:57:14;-8.50;99.90
6696;DHT22;3385;48.928;10.330;2022-12-18T01:59:42;-8.80;99.90
6696;DHT22;3385;48.928;10.330;2022-12-18T02:02:11;-7.90;99.90
6696;DHT22;3385;48.928;10.330;2022-12-18T02:04:37;-8.70;99.90
6696;DHT22;3385;48.928;10.330;2022-12-18T02:09:55;-8.90;99.90
6696;DHT22;3385;48.928;10.330;2022-12-18T02:12:28;-8.90;99.90
6696;DHT22;3385;48.928;10.330;2022-12-18T02:15:07;-8.50;99.90
6696;DHT22;3385;48.928;10.330;2022-12-18T02:17:47;-8.90;99.90
6696;DHT22;3385;48.928;10.330;2022-12-18T02:20:28;-8.20;99.90
6696;DHT22;3385;48.928;10.330;2022-12-18T02:26:43;-9.00;99.90
6696;DHT22;3385;48.928;10.330;2022-12-18T02:29:08;-9.10;99.90
6696;DHT22;3385;48.928;10.330;2022-12-18T02:31:43;-8.50;99.90
6696;DHT22;3385;48.928;10.330;2022-12-18T02:34:11;-8.80;99.90
6696;DHT22;3385;48.928;10.330;2022-12-18T02:36:42;-9.20;99.90
6696;DHT22;3385;48.928;10.330;2022-12-18T02:39:11;-9.20;99.90
6696;DHT22;3385;48.928;10.330;2022-12-18T02:41:41;-8.50;99.90
6696;DHT22;3385;48.928;10.330;2022-12-18T02:44:10;-10.60;99.90
6696;DHT22;3385;48.928;10.330;2022-12-18T02:46:37;-9.20;99.90
6696;DHT22;3385;48.928;10.330;2022-12-18T02:56:57;-9.20;99.90
6696;DHT22;3385;48.928;10.330;2022-12-18T02:59:54;-8.50;99.90
6696;DHT22;3385;48.928;10.330;2022-12-18T03:02:29;-9.20;99.90
6696;DHT22;3385;48.928;10.330;2022-12-18T03:05:04;-7.90;99.90
6696;DHT22;3385;48.928;10.330;2022-12-18T03:07:47;-8.40;99.90
6696;DHT22;3385;48.928;10.330;2022-12-18T03:10:16;-9.30;99.90
6696;DHT22;3385;48.928;10.330;2022-12-18T03:12:54;-8.50;99.90
6696;DHT22;3385;48.928;10.330;2022-12-18T03:15:27;-8.50;99.90
6696;DHT22;3385;48.928;10.330;2022-12-18T03:18:19;-8.40;99.90
6696;DHT22;3385;48.928;10.330;2022-12-18T03:20:44;-8.90;99.90
6696;DHT22;3385;48.928;10.330;2022-12-18T03:23:15;-8.00;99.90
6696;DHT22;3385;48.928;10.330;2022-12-18T03:25:44;-8.40;99.90
6696;DHT22;3385;48.928;10.330;2022-12-18T03:28:20;-8.90;99.90
6696;DHT22;3385;48.928;10.330;2022-12-18T03:30:47;-9.10;99.90
6696;DHT22;3385;48.928;10.330;2022-12-18T03:36:18;-9.20;99.90
6696;DHT22;3385;48.928;10.330;2022-12-18T03:38:44;-8.90;99.90
6696;DHT22;3385;48.928;10.330;2022-12-18T03:41:48;-8.50;99.90
6696;DHT22;3385;48.928;10.330;2022-12-18T03:55:30;-9.10;99.90
6696;DHT22;3385;48.928;10.330;2022-12-18T03:58:00;-9.10;99.90
6696;DHT22;3385;48.928;10.330;2022-12-18T04:00:27;-8.70;99.90
6696;DHT22;3385;48.928;10.330;2022-12-18T04:02:55;-8.90;99.90
6696;DHT22;3385;48.928;10.330;2022-12-18T04:05:23;-8.70;99.90
6696;DHT22;3385;48.928;10.330;2022-12-18T04:07:53;-8.70;99.90
6696;DHT22;3385;48.928;10.330;2022-12-18T04:10:20;-9.20;99.90
6696;DHT22;3385;48.928;10.330;2022-12-18T04:12:46;-9.00;99.90
6696;DHT22;3385;48.928;10.330;2022-12-18T04:15:12;-7.70;99.90
6696;DHT22;3385;48.928;10.330;2022-12-18T04:17:39;-8.00;99.90
6696;DHT22;3385;48.928;10.330;2022-12-18T04:20:11;-7.90;99.90
6696;DHT22;3385;48.928;10.330;2022-12-18T04:22:37;-8.90;99.90
6696;DHT22;3385;48.928;10.330;2022-12-18T04:25:03;-8.70;99.90
6696;DHT22;3385;48.928;10.330;2022-12-18T04:27:29;-9.00;99.90
6696;DHT22;3385;48.928;10.330;2022-12-18T04:29:54;-8.60;99.90
6696;DHT22;3385;48.928;10.330;2022-12-18T04:32:20;-8.10;99.90
6696;DHT22;3385;48.928;10.330;2022-12-18T04:34:46;-8.70;99.90
6696;DHT22;3385;48.928;10.330;2022-12-18T04:37:11;-8.90;99.90
6696;DHT22;3385;48.928;10.330;2022-12-18T04:39:37;-8.40;99.90
6696;DHT22;3385;48.928;10.330;2022-12-18T04:42:05;-8.10;99.90
6696;DHT22;3385;48.928;10.330;2022-12-18T04:44:31;-8.90;99.90
6696;DHT22;3385;48.928;10.330;2022-12-18T04:46:57;-8.40;99.90
6696;DHT22;3385;48.928;10.330;2022-12-18T04:49:23;-8.60;99.90
6696;DHT22;3385;48.928;10.330;2022-12-18T04:51:48;-8.70;99.90
6696;DHT22;3385;48.928;10.330;2022-12-18T04:54:14;-8.70;99.90
6696;DHT22;3385;48.928;10.330;2022-12-18T04:56:40;-8.80;99.90
6696;DHT22;3385;48.928;10.330;2022-12-18T04:59:05;-8.80;99.90
6696;DHT22;3385;48.928;10.330;2022-12-18T05:01:33;-8.70;99.90
6696;DHT22;3385;48.928;10.330;2022-12-18T05:03:58;-8.60;99.90
6696;DHT22;3385;48.928;10.330;2022-12-18T05:06:24;-8.50;99.90
6696;DHT22;3385;48.928;10.330;2022-12-18T05:08:50;-8.20;99.90
6696;DHT22;3385;48.928;10.330;2022-12-18T05:11:16;-8.60;99.90
6696;DHT22;3385;48.928;10.330;2022-12-18T05:13:42;-8.60;99.90
6696;DHT22;3385;48.928;10.330;2022-12-18T05:16:11;-8.50;99.90
6696;DHT22;3385;48.928;10.330;2022-12-18T05:18:37;-8.30;99.90
6696;DHT22;3385;48.928;10.330;2022-12-18T05:21:03;-8.30;99.90
6696;DHT22;3385;48.928;10.330;2022-12-18T05:23:30;-8.40;99.90
6696;DHT22;3385;48.928;10.330;2022-12-18T05:25:58;-8.30;99.90
6696;DHT22;3385;48.928;10.330;2022-12-18T05:28:26;-8.10;99.90
6696;DHT22;3385;48.928;10.330;2022-12-18T05:30:56;-8.30;99.90
6696;DHT22;3385;48.928;10.330;2022-12-18T05:33:24;-8.00;99.90
6696;DHT22;3385;48.928;10.330;2022-12-18T05:35:52;-7.90;99.90
6696;DHT22;3385;48.928;10.330;2022-12-18T05:38:19;-7.80;99.90
6696;DHT22;3385;48.928;10.330;2022-12-18T05:40:44;-8.10;99.90
6696;DHT22;3385;48.928;10.330;2022-12-18T05:43:10;-8.10;99.90
6696;DHT22;3385;48.928;10.330;2022-12-18T05:45:37;-8.10;99.90
6696;DHT22;3385;48.928;10.330;2022-12-18T05:48:03;-8.00;99.90
6696;DHT22;3385;48.928;10.330;2022-12-18T05:50:29;-8.00;99.90
6696;DHT22;3385;48.928;10.330;2022-12-18T05:52:55;-7.90;99.90
6696;DHT22;3385;48.928;10.330;2022-12-18T05:55:21;-7.90;99.90
6696;DHT22;3385;48.928;10.330;2022-12-18T05:57:47;-7.90;99.90
6696;DHT22;3385;48.928;10.330;2022-12-18T06:00:13;-5.40;99.90
6696;DHT22;3385;48.928;10.330;2022-12-18T06:02:39;-7.80;99.90
6696;DHT22;3385;48.928;10.330;2022-12-18T06:05:05;-7.80;99.90
6696;DHT22;3385;48.928;10.330;2022-12-18T06:07:30;-7.80;99.90
6696;DHT22;3385;48.928;10.330;2022-12-18T06:09:56;-7.60;99.90
6696;DHT22;3385;48.928;10.330;2022-12-18T06:12:22;-7.60;99.90
6696;DHT22;3385;48.928;10.330;2022-12-18T06:14:48;-7.60;99.90
6696;DHT22;3385;48.928;10.330;2022-12-18T06:17:13;-7.60;99.90
6696;DHT22;3385;48.928;10.330;2022-12-18T06:19:39;-7.60;99.90
6696;DHT22;3385;48.928;10.330;2022-12-18T06:22:05;-7.60;99.90
6696;DHT22;3385;48.928;10.330;2022-12-18T06:24:30;-7.60;99.90
6696;DHT22;3385;48.928;10.330;2022-12-18T06:26:56;-7.20;99.90
6696;DHT22;3385;48.928;10.330;2022-12-18T06:29:22;-7.50;99.90
6696;DHT22;3385;48.928;10.330;2022-12-18T06:31:47;-7.50;99.90
6696;DHT22;3385;48.928;10.330;2022-12-18T06:34:13;-7.00;99.90
6696;DHT22;3385;48.928;10.330;2022-12-18T06:36:39;-7.30;99.90
6696;DHT22;3385;48.928;10.330;2022-12-18T06:39:04;-7.40;99.90
6696;DHT22;3385;48.928;10.330;2022-12-18T06:41:30;-7.40;99.90
6696;DHT22;3385;48.928;10.330;2022-12-18T06:43:57;-7.20;99.90
6696;DHT22;3385;48.928;10.330;2022-12-18T06:46:23;-7.30;99.90
6696;DHT22;3385;48.928;10.330;2022-12-18T06:48:50;-7.30;99.90
6696;DHT22;3385;48.928;10.330;2022-12-18T06:51:18;-7.30;99.90
6696;DHT22;3385;48.928;10.330;2022-12-18T06:53:44;-7.30;99.90
6696;DHT22;3385;48.928;10.330;2022-12-18T06:56:09;-7.00;99.90
6696;DHT22;3385;48.928;10.330;2022-12-18T06:58:35;-7.20;99.90
6696;DHT22;3385;48.928;10.330;2022-12-18T07:01:02;-7.20;99.90
6696;DHT22;3385;48.928;10.330;2022-12-18T07:03:28;-7.10;99.90
6696;DHT22;3385;48.928;10.330;2022-12-18T07:05:54;-7.00;99.90
6696;DHT22;3385;48.928;10.330;2022-12-18T07:08:20;-7.10;99.90
6696;DHT22;3385;48.928;10.330;2022-12-18T07:10:46;-7.10;99.90
6696;DHT22;3385;48.928;10.330;2022-12-18T07:13:14;-7.00;99.90
6696;DHT22;3385;48.928;10.330;2022-12-18T07:15:40;-7.00;99.90
6696;DHT22;3385;48.928;10.330;2022-12-18T07:18:06;-7.00;99.90
6696;DHT22;3385;48.928;10.330;2022-12-18T07:20:31;-7.00;99.90
6696;DHT22;3385;48.928;10.330;2022-12-18T07:22:57;-6.90;99.90
6696;DHT22;3385;48.928;10.330;2022-12-18T07:25:23;-6.90;99.90
6696;DHT22;3385;48.928;10.330;2022-12-18T07:27:49;-4.90;99.90
6696;DHT22;3385;48.928;10.330;2022-12-18T07:30:14;-6.90;99.90
6696;DHT22;3385;48.928;10.330;2022-12-18T07:32:40;-6.90;99.90
6696;DHT22;3385;48.928;10.330;2022-12-18T07:35:06;-6.80;99.90
6696;DHT22;3385;48.928;10.330;2022-12-18T07:37:32;-6.70;99.90
6696;DHT22;3385;48.928;10.330;2022-12-18T07:39:57;-6.80;99.90
6696;DHT22;3385;48.928;10.330;2022-12-18T07:42:23;-6.70;99.90
6696;DHT22;3385;48.928;10.330;2022-12-18T07:44:59;-6.70;99.90
6696;DHT22;3385;48.928;10.330;2022-12-18T07:47:25;-6.70;99.90
6696;DHT22;3385;48.928;10.330;2022-12-18T07:49:51;-6.60;99.90
6696;DHT22;3385;48.928;10.330;2022-12-18T07:52:17;-6.60;99.90
6696;DHT22;3385;48.928;10.330;2022-12-18T07:54:42;-6.60;99.90
6696;DHT22;3385;48.928;10.330;2022-12-18T07:57:09;-6.60;99.90
6696;DHT22;3385;48.928;10.330;2022-12-18T07:59:35;-6.60;99.90
6696;DHT22;3385;48.928;10.330;2022-12-18T08:02:00;-6.50;99.90
6696;DHT22;3385;48.928;10.330;2022-12-18T08:04:26;-6.50;99.90
6696;DHT22;3385;48.928;10.330;2022-12-18T08:06:52;-6.40;99.90
6696;DHT22;3385;48.928;10.330;2022-12-18T08:09:18;-6.40;99.90
6696;DHT22;3385;48.928;10.330;2022-12-18T08:11:44;-6.40;99.90
6696;DHT22;3385;48.928;10.330;2022-12-18T08:14:10;-6.40;99.90
6696;DHT22;3385;48.928;10.330;2022-12-18T08:16:36;-6.30;99.90
6696;DHT22;3385;48.928;10.330;2022-12-18T08:19:02;-6.20;99.90
6696;DHT22;3385;48.928;10.330;2022-12-18T08:21:30;-6.20;99.90
6696;DHT22;3385;48.928;10.330;2022-12-18T08:23:58;-6.20;99.90
6696;DHT22;3385;48.928;10.330;2022-12-18T08:26:27;-6.10;99.90
6696;DHT22;3385;48.928;10.330;2022-12-18T08:28:54;-6.10;99.90
6696;DHT22;3385;48.928;10.330;2022-12-18T08:31:20;-6.00;99.90
6696;DHT22;3385;48.928;10.330;2022-12-18T08:33:49;-6.00;99.90
6696;DHT22;3385;48.928;10.330;2022-12-18T08:36:16;-6.00;99.90
6696;DHT22;3385;48.928;10.330;2022-12-18T08:38:41;-5.90;99.90
6696;DHT22;3385;48.928;10.330;2022-12-18T08:41:12;-5.90;99.90
6696;DHT22;3385;48.928;10.330;2022-12-18T08:43:38;-5.80;99.90
6696;DHT22;3385;48.928;10.330;2022-12-18T08:46:25;-5.90;99.90
6696;DHT22;3385;48.928;10.330;2022-12-18T08:48:52;-5.90;99.90
6696;DHT22;3385;48.928;10.330;2022-12-18T08:51:19;-5.80;99.90
6696;DHT22;3385;48.928;10.330;2022-12-18T08:53:46;-5.70;99.90
6696;DHT22;3385;48.928;10.330;2022-12-18T08:56:12;-5.70;99.90
6696;DHT22;3385;48.928;10.330;2022-12-18T08:58:38;-5.60;99.90
6696;DHT22;3385;48.928;10.330;2022-12-18T09:01:06;-5.70;99.90
6696;DHT22;3385;48.928;10.330;2022-12-18T09:03:32;-5.60;99.90
6696;DHT22;3385;48.928;10.330;2022-12-18T09:05:58;-5.50;99.90
6696;DHT22;3385;48.928;10.330;2022-12-18T09:08:25;-5.50;99.90
6696;DHT22;3385;48.928;10.330;2022-12-18T09:10:51;-5.40;99.90
6696;DHT22;3385;48.928;10.330;2022-12-18T09:13:18;-5.50;99.90
6696;DHT22;3385;48.928;10.330;2022-12-18T09:15:54;-5.50;99.90
6696;DHT22;3385;48.928;10.330;2022-12-18T09:18:22;-5.50;99.90
6696;DHT22;3385;48.928;10.330;2022-12-18T09:20:48;-5.50;99.90
6696;DHT22;3385;48.928;10.330;2022-12-18T09:23:15;-5.50;99.90
6696;DHT22;3385;48.928;10.330;2022-12-18T09:25:41;-5.40;99.90
6696;DHT22;3385;48.928;10.330;2022-12-18T09:28:12;-5.40;99.90
6696;DHT22;3385;48.928;10.330;2022-12-18T09:30:41;-5.30;99.90
6696;DHT22;3385;48.928;10.330;2022-12-18T09:33:08;-5.30;99.90
6696;DHT22;3385;48.928;10.330;2022-12-18T09:35:40;-5.30;99.90
6696;DHT22;3385;48.928;10.330;2022-12-18T09:38:07;-5.40;99.90
6696;DHT22;3385;48.928;10.330;2022-12-18T09:40:43;-5.40;99.90
6696;DHT22;3385;48.928;10.330;2022-12-18T09:43:18;-5.20;99.90
6696;DHT22;3385;48.928;10.330;2022-12-18T09:45:49;-5.10;99.90
6696;DHT22;3385;48.928;10.330;2022-12-18T09:48:30;-5.10;99.90
6696;DHT22;3385;48.928;10.330;2022-12-18T09:51:00;-5.10;99.90
6696;DHT22;3385;48.928;10.330;2022-12-18T09:53:31;-5.10;99.90
6696;DHT22;3385;48.928;10.330;2022-12-18T09:55:59;-5.20;99.90
6696;DHT22;3385;48.928;10.330;2022-12-18T09:58:39;-5.10;99.90
6696;DHT22;3385;48.928;10.330;2022-12-18T10:01:14;-5.10;99.90
6696;DHT22;3385;48.928;10.330;2022-12-18T10:03:41;-5.10;99.90
6696;DHT22;3385;48.928;10.330;2022-12-18T10:06:27;-5.10;99.90
6696;DHT22;3385;48.928;10.330;2022-12-18T10:11:58;-5.00;99.90
6696;DHT22;3385;48.928;10.330;2022-12-18T10:14:39;-5.00;99.90
6696;DHT22;3385;48.928;10.330;2022-12-18T10:18:15;-4.90;99.90
6696;DHT22;3385;48.928;10.330;2022-12-18T10:20:43;-4.80;99.90
6696;DHT22;3385;48.928;10.330;2022-12-18T10:23:38;-4.80;99.90
6696;DHT22;3385;48.928;10.330;2022-12-18T10:26:09;-4.80;99.90
6696;DHT22;3385;48.928;10.330;2022-12-18T10:28:37;-4.80;99.90
6696;DHT22;3385;48.928;10.330;2022-12-18T10:31:21;-2.70;99.90
6696;DHT22;3385;48.928;10.330;2022-12-18T10:33:47;-4.50;99.90
6696;DHT22;3385;48.928;10.330;2022-12-18T10:36:13;-4.40;99.90
6696;DHT22;3385;48.928;10.330;2022-12-18T10:38:39;-4.40;99.90
6696;DHT22;3385;48.928;10.330;2022-12-18T10:41:22;-4.40;99.90
6696;DHT22;3385;48.928;10.330;2022-12-18T10:44:17;-4.40;99.90
6696;DHT22;3385;48.928;10.330;2022-12-18T10:46:45;-4.50;99.90
6696;DHT22;3385;48.928;10.330;2022-12-18T10:49:27;-4.50;99.90
6696;DHT22;3385;48.928;10.330;2022-12-18T10:52:19;-4.50;99.90
6696;DHT22;3385;48.928;10.330;2022-12-18T10:55:01;-3.00;99.90
6696;DHT22;3385;48.928;10.330;2022-12-18T10:57:37;-4.50;99.90
6696;DHT22;3385;48.928;10.330;2022-12-18T11:00:23;-4.40;99.90
6696;DHT22;3385;48.928;10.330;2022-12-18T11:02:50;-4.40;99.90
6696;DHT22;3385;48.928;10.330;2022-12-18T11:05:28;-4.40;99.90
6696;DHT22;3385;48.928;10.330;2022-12-18T11:07:55;-4.40;99.90
6696;DHT22;3385;48.928;10.330;2022-12-18T11:10:28;-4.40;99.90
6696;DHT22;3385;48.928;10.330;2022-12-18T11:12:55;-4.40;99.90
6696;DHT22;3385;48.928;10.330;2022-12-18T11:15:26;-4.40;99.90
6696;DHT22;3385;48.928;10.330;2022-12-18T11:17:53;-4.30;99.90
6696;DHT22;3385;48.928;10.330;2022-12-18T11:20:32;-4.30;99.90
6696;DHT22;3385;48.928;10.330;2022-12-18T11:23:04;-4.30;99.90
6696;DHT22;3385;48.928;10.330;2022-12-18T11:25:32;-4.20;99.90
6696;DHT22;3385;48.928;10.330;2022-12-18T11:33:42;-3.90;99.90
6696;DHT22;3385;48.928;10.330;2022-12-18T11:36:09;-4.00;99.90
6696;DHT22;3385;48.928;10.330;2022-12-18T11:38:38;-4.00;99.90
6696;DHT22;3385;48.928;10.330;2022-12-18T11:41:21;-4.10;99.90
6696;DHT22;3385;48.928;10.330;2022-12-18T11:44:11;-4.10;99.90
6696;DHT22;3385;48.928;10.330;2022-12-18T11:46:47;-4.20;99.90
6696;DHT22;3385;48.928;10.330;2022-12-18T11:49:39;-4.10;99.90
6696;DHT22;3385;48.928;10.330;2022-12-18T11:52:21;-4.10;99.90
6696;DHT22;3385;48.928;10.330;2022-12-18T11:54:51;-4.10;99.90
6696;DHT22;3385;48.928;10.330;2022-12-18T12:00:11;-3.10;99.90
6696;DHT22;3385;48.928;10.330;2022-12-18T12:11:05;-4.10;99.90
6696;DHT22;3385;48.928;10.330;2022-12-18T12:13:42;-4.20;99.90
6696;DHT22;3385;48.928;10.330;2022-12-18T12:24:51;-3.60;99.90
6696;DHT22;3385;48.928;10.330;2022-12-18T12:32:51;-3.90;99.90
6696;DHT22;3385;48.928;10.330;2022-12-18T12:35:37;-3.80;99.90
6696;DHT22;3385;48.928;10.330;2022-12-18T12:38:21;-3.90;99.90
6696;DHT22;3385;48.928;10.330;2022-12-18T12:41:09;-3.90;99.90
6696;DHT22;3385;48.928;10.330;2022-12-18T12:43:58;-4.00;99.90
6696;DHT22;3385;48.928;10.330;2022-12-18T12:46:26;-4.10;99.90
6696;DHT22;3385;48.928;10.330;2022-12-18T12:51:26;-4.20;99.90
6696;DHT22;3385;48.928;10.330;2022-12-18T12:53:54;-4.20;99.90
6696;DHT22;3385;48.928;10.330;2022-12-18T12:56:22;-4.20;99.90
6696;DHT22;3385;48.928;10.330;2022-12-18T12:59:01;-4.10;99.90
6696;DHT22;3385;48.928;10.330;2022-12-18T13:06:40;-4.10;99.90
6696;DHT22;3385;48.928;10.330;2022-12-18T13:09:07;-4.10;99.90
6696;DHT22;3385;48.928;10.330;2022-12-18T13:11:40;-4.20;99.90
6696;DHT22;3385;48.928;10.330;2022-12-18T13:14:36;-4.10;99.90
6696;DHT22;3385;48.928;10.330;2022-12-18T13:19:51;-4.20;99.90
6696;DHT22;3385;48.928;10.330;2022-12-18T13:22:47;-4.20;99.90
6696;DHT22;3385;48.928;10.330;2022-12-18T13:25:34;-4.20;99.90
6696;DHT22;3385;48.928;10.330;2022-12-18T13:28:12;-4.20;99.90
6696;DHT22;3385;48.928;10.330;2022-12-18T13:30:42;-4.30;99.90
6696;DHT22;3385;48.928;10.330;2022-12-18T13:46:20;-4.70;99.90
6696;DHT22;3385;48.928;10.330;2022-12-18T13:49:06;-4.70;99.90
6696;DHT22;3385;48.928;10.330;2022-12-18T13:51:44;-4.80;99.90
6696;DHT22;3385;48.928;10.330;2022-12-18T13:54:30;-4.90;99.90
6696;DHT22;3385;48.928;10.330;2022-12-18T13:56:58;-4.90;99.90
6696;DHT22;3385;48.928;10.330;2022-12-18T13:59:37;-4.90;99.90
6696;DHT22;3385;48.928;10.330;2022-12-18T14:02:16;-4.90;99.90
6696;DHT22;3385;48.928;10.330;2022-12-18T14:04:45;-4.90;99.90
6696;DHT22;3385;48.928;10.330;2022-12-18T14:07:15;-4.90;99.90
6696;DHT22;3385;48.928;10.330;2022-12-18T14:09:57;-4.90;99.90
6696;DHT22;3385;48.928;10.330;2022-12-18T14:12:27;-5.00;99.90
6696;DHT22;3385;48.928;10.330;2022-12-18T14:20:24;-5.10;99.90
6696;DHT22;3385;48.928;10.330;2022-12-18T14:22:50;-5.20;99.90
6696;DHT22;3385;48.928;10.330;2022-12-18T14:25:24;-5.20;99.90
6696;DHT22;3385;48.928;10.330;2022-12-18T14:27:53;-5.20;99.90
6696;DHT22;3385;48.928;10.330;2022-12-18T14:30:30;-5.20;99.90
6696;DHT22;3385;48.928;10.330;2022-12-18T14:33:10;-5.20;99.90
6696;DHT22;3385;48.928;10.330;2022-12-18T14:35:42;-5.20;99.90
6696;DHT22;3385;48.928;10.330;2022-12-18T14:40:53;-5.20;99.90
6696;DHT22;3385;48.928;10.330;2022-12-18T14:43:19;-5.30;99.90
6696;DHT22;3385;48.928;10.330;2022-12-18T14:45:45;-5.30;99.90
6696;DHT22;3385;48.928;10.330;2022-12-18T14:50:37;-5.40;99.90
6696;DHT22;3385;48.928;10.330;2022-12-18T14:53:04;-5.40;99.90
6696;DHT22;3385;48.928;10.330;2022-12-18T14:55:29;-5.50;99.90
6696;DHT22;3385;48.928;10.330;2022-12-18T14:57:56;-5.50;99.90
6696;DHT22;3385;48.928;10.330;2022-12-18T15:00:24;-5.60;99.90
6696;DHT22;3385;48.928;10.330;2022-12-18T15:02:54;-5.60;99.90
6696;DHT22;3385;48.928;10.330;2022-12-18T15:05:30;-5.80;99.90
6696;DHT22;3385;48.928;10.330;2022-12-18T15:07:58;-3.50;99.90
6696;DHT22;3385;48.928;10.330;2022-12-18T15:10:34;-5.80;99.90
6696;DHT22;3385;48.928;10.330;2022-12-18T15:20:40;-5.90;99.90
6696;DHT22;3385;48.928;10.330;2022-12-18T15:23:37;-5.90;99.90
6696;DHT22;3385;48.928;10.330;2022-12-18T15:26:08;-5.90;99.90
6696;DHT22;3385;48.928;10.330;2022-12-18T15:28:42;-5.90;99.90
6696;DHT22;3385;48.928;10.330;2022-12-18T15:33:59;-5.90;99.90
6696;DHT22;3385;48.928;10.330;2022-12-18T15:36:26;-5.90;99.90
6696;DHT22;3385;48.928;10.330;2022-12-18T15:38:53;-5.90;99.90
6696;DHT22;3385;48.928;10.330;2022-12-18T15:41:21;-5.90;99.90
6696;DHT22;3385;48.928;10.330;2022-12-18T15:43:49;-5.90;99.90
6696;DHT22;3385;48.928;10.330;2022-12-18T15:46:25;-5.90;99.90
6696;DHT22;3385;48.928;10.330;2022-12-18T15:48:56;-5.90;99.90
6696;DHT22;3385;48.928;10.330;2022-12-18T15:51:33;-6.00;99.90
6696;DHT22;3385;48.928;10.330;2022-12-18T15:54:03;-5.90;99.90
6696;DHT22;3385;48.928;10.330;2022-12-18T15:56:29;-6.00;99.90
6696;DHT22;3385;48.928;10.330;2022-12-18T15:59:18;-5.90;99.90
6696;DHT22;3385;48.928;10.330;2022-12-18T16:01:46;-6.00;99.90
6696;DHT22;3385;48.928;10.330;2022-12-18T16:04:14;-6.00;99.90
6696;DHT22;3385;48.928;10.330;2022-12-18T16:06:41;-6.00;99.90
6696;DHT22;3385;48.928;10.330;2022-12-18T16:09:08;-6.00;99.90
6696;DHT22;3385;48.928;10.330;2022-12-18T16:11:35;-6.00;99.90
6696;DHT22;3385;48.928;10.330;2022-12-18T16:14:24;-6.00;99.90
6696;DHT22;3385;48.928;10.330;2022-12-18T16:16:54;-6.00;99.90
6696;DHT22;3385;48.928;10.330;2022-12-18T16:19:21;-6.00;99.90
6696;DHT22;3385;48.928;10.330;2022-12-18T16:21:48;-6.00;99.90
6696;DHT22;3385;48.928;10.330;2022-12-18T16:24:20;-6.00;99.90
6696;DHT22;3385;48.928;10.330;2022-12-18T16:26:50;-6.00;99.90
6696;DHT22;3385;48.928;10.330;2022-12-18T16:29:17;-6.10;99.90
6696;DHT22;3385;48.928;10.330;2022-12-18T16:31:43;-6.10;99.90
6696;DHT22;3385;48.928;10.330;2022-12-18T16:34:11;-6.10;99.90
6696;DHT22;3385;48.928;10.330;2022-12-18T16:36:37;-6.10;99.90
6696;DHT22;3385;48.928;10.330;2022-12-18T16:39:02;-4.80;99.90
6696;DHT22;3385;48.928;10.330;2022-12-18T16:41:28;-6.10;99.90
6696;DHT22;3385;48.928;10.330;2022-12-18T16:43:57;-6.10;99.90
6696;DHT22;3385;48.928;10.330;2022-12-18T16:46:22;-6.10;99.90
6696;DHT22;3385;48.928;10.330;2022-12-18T16:48:48;-6.10;99.90
6696;DHT22;3385;48.928;10.330;2022-12-18T16:51:14;-6.10;99.90
6696;DHT22;3385;48.928;10.330;2022-12-18T16:53:40;-6.10;99.90
6696;DHT22;3385;48.928;10.330;2022-12-18T16:56:06;-6.10;99.90
6696;DHT22;3385;48.928;10.330;2022-12-18T16:58:31;-6.10;99.90
6696;DHT22;3385;48.928;10.330;2022-12-18T17:00:57;-6.10;99.90
6696;DHT22;3385;48.928;10.330;2022-12-18T17:03:23;-6.20;99.90
6696;DHT22;3385;48.928;10.330;2022-12-18T17:05:48;-6.20;99.90
6696;DHT22;3385;48.928;10.330;2022-12-18T17:08:14;-6.20;99.90
6696;DHT22;3385;48.928;10.330;2022-12-18T17:10:40;-6.20;99.90
6696;DHT22;3385;48.928;10.330;2022-12-18T17:13:06;-6.20;99.90
6696;DHT22;3385;48.928;10.330;2022-12-18T17:15:34;-6.20;99.90
6696;DHT22;3385;48.928;10.330;2022-12-18T17:18:01;-6.20;99.90
6696;DHT22;3385;48.928;10.330;2022-12-18T17:20:27;-6.20;99.90
6696;DHT22;3385;48.928;10.330;2022-12-18T17:22:52;-6.20;99.90
6696;DHT22;3385;48.928;10.330;2022-12-18T17:25:18;-6.20;99.90
6696;DHT22;3385;48.928;10.330;2022-12-18T17:27:44;-6.30;99.90
6696;DHT22;3385;48.928;10.330;2022-12-18T17:30:10;-6.20;99.90
6696;DHT22;3385;48.928;10.330;2022-12-18T17:32:36;-6.30;99.90
6696;DHT22;3385;48.928;10.330;2022-12-18T17:35:01;-6.30;99.90
6696;DHT22;3385;48.928;10.330;2022-12-18T17:37:27;-6.30;99.90
6696;DHT22;3385;48.928;10.330;2022-12-18T17:39:53;-6.40;99.90
6696;DHT22;3385;48.928;10.330;2022-12-18T17:42:19;-6.30;99.90
6696;DHT22;3385;48.928;10.330;2022-12-18T17:44:44;-6.30;99.90
6696;DHT22;3385;48.928;10.330;2022-12-18T17:47:11;-6.30;99.90
6696;DHT22;3385;48.928;10.330;2022-12-18T17:49:37;-6.30;99.90
6696;DHT22;3385;48.928;10.330;2022-12-18T17:52:04;-6.30;99.90